createdAt,value
2019-05-20T00:01:49.398Z,12.60
2019-05-20T00:04:20.055Z,12.60
2019-05-20T00:06:50.575Z,12.60
2019-05-20T00:09:21.396Z,12.60
2019-05-20T00:11:53.737Z,12.50
2019-05-20T00:14:24.253Z,12.50
2019-05-20T00:16:55.288Z,12.50
2019-05-20T00:19:25.857Z,12.50
2019-05-20T00:21:56.508Z,12.40
2019-05-20T00:24:27.015Z,12.40
2019-05-20T00:26:57.628Z,12.40
2019-05-20T00:29:28.383Z,12.40
2019-05-20T00:31:59.256Z,12.40
2019-05-20T00:34:35.119Z,12.40
2019-05-20T00:37:02.799Z,12.40
2019-05-20T00:39:33.482Z,12.40
2019-05-20T00:42:04.145Z,12.40
2019-05-20T00:44:34.731Z,12.40
2019-05-20T00:47:05.610Z,12.40
2019-05-20T00:49:36.126Z,12.40
2019-05-20T00:52:06.761Z,12.30
2019-05-20T00:54:38.524Z,12.30
2019-05-20T00:57:09.150Z,12.30
2019-05-20T00:59:39.884Z,12.30
2019-05-20T01:02:10.536Z,12.30
2019-05-20T01:04:41.486Z,12.30
2019-05-20T01:07:12.234Z,12.20
2019-05-20T01:09:42.867Z,12.20
2019-05-20T01:12:13.437Z,12.20
2019-05-20T01:14:44.207Z,12.30
2019-05-20T01:17:14.990Z,12.30
2019-05-20T01:19:45.598Z,12.20
2019-05-20T01:22:16.506Z,12.20
2019-05-20T01:24:47.074Z,12.20
2019-05-20T01:27:17.782Z,12.30
2019-05-20T01:29:48.347Z,12.20
2019-05-20T01:32:18.861Z,12.20
2019-05-20T01:34:49.369Z,12.20
2019-05-20T01:37:19.949Z,12.20
2019-05-20T01:39:50.514Z,12.20
2019-05-20T01:42:21.030Z,12.20
2019-05-20T01:44:51.590Z,12.20
2019-05-20T01:47:22.175Z,12.20
2019-05-20T01:49:53.168Z,12.20
2019-05-20T01:52:23.698Z,12.20
2019-05-20T01:54:54.469Z,12.20
2019-05-20T01:57:25.341Z,12.20
2019-05-20T01:59:56.966Z,12.20
2019-05-20T02:02:27.598Z,12.20
2019-05-20T02:04:58.259Z,12.20
2019-05-20T02:07:28.944Z,12.20
2019-05-20T02:09:59.579Z,12.30
2019-05-20T02:12:30.191Z,12.30
2019-05-20T02:15:02.486Z,12.30
2019-05-20T02:17:34.343Z,12.20
2019-05-20T02:20:07.319Z,12.20
2019-05-20T02:22:37.949Z,12.20
2019-05-20T02:25:08.614Z,12.20
2019-05-20T02:27:39.182Z,12.20
2019-05-20T02:30:10.463Z,12.20
2019-05-20T02:32:41.342Z,12.20
2019-05-20T02:35:12.122Z,12.20
2019-05-20T02:37:42.622Z,12.20
2019-05-20T02:40:13.402Z,12.20
2019-05-20T02:42:44.093Z,12.20
2019-05-20T02:45:16.227Z,12.20
2019-05-20T02:47:46.802Z,12.20
2019-05-20T02:50:17.579Z,12.20
2019-05-20T02:52:48.295Z,12.20
2019-05-20T02:55:19.275Z,12.20
2019-05-20T02:57:50.238Z,12.20
2019-05-20T03:00:20.811Z,12.20
2019-05-20T03:02:51.412Z,12.30
2019-05-20T03:05:22.058Z,12.30
2019-05-20T03:07:52.769Z,12.30
2019-05-20T03:10:23.811Z,12.30
2019-05-20T03:12:54.410Z,12.30
2019-05-20T03:15:25.287Z,12.30
2019-05-20T03:17:56.334Z,12.30
2019-05-20T03:20:26.908Z,12.30
2019-05-20T03:22:57.878Z,12.30
2019-05-20T03:25:28.664Z,12.40
2019-05-20T03:27:59.580Z,12.40
2019-05-20T03:30:30.535Z,12.40
2019-05-20T03:33:01.333Z,12.40
2019-05-20T03:35:31.973Z,12.40
2019-05-20T03:38:02.465Z,12.40
2019-05-20T03:40:33.148Z,12.50
2019-05-20T03:43:03.715Z,12.50
2019-05-20T03:45:34.488Z,12.60
2019-05-20T03:48:05.372Z,12.60
2019-05-20T03:50:35.979Z,12.60
2019-05-20T03:53:06.542Z,12.60
2019-05-20T03:55:37.149Z,12.50
2019-05-20T03:58:07.906Z,12.60
2019-05-20T04:00:43.778Z,12.60
2019-05-20T04:03:14.927Z,12.70
2019-05-20T04:05:45.653Z,12.70
2019-05-20T04:08:17.291Z,12.70
2019-05-20T04:10:48.012Z,12.70
2019-05-20T04:13:18.634Z,12.80
2019-05-20T04:15:49.188Z,12.80
2019-05-20T04:18:21.178Z,12.80
2019-05-20T04:20:51.881Z,12.80
2019-05-20T04:23:22.943Z,12.80
2019-05-20T04:25:53.469Z,12.80
2019-05-20T04:28:24.006Z,12.80
2019-05-20T04:30:54.585Z,12.80
2019-05-20T04:33:25.619Z,12.70
2019-05-20T04:35:56.229Z,12.60
2019-05-20T04:38:26.769Z,12.50
2019-05-20T04:40:57.581Z,12.30
2019-05-20T04:43:28.530Z,12.20
2019-05-20T04:45:59.106Z,12.20
2019-05-20T04:48:29.722Z,12.20
2019-05-20T04:51:01.283Z,12.10
2019-05-20T04:53:32.958Z,12.10
2019-05-20T04:56:03.621Z,12.00
2019-05-20T04:58:34.337Z,12.00
2019-05-20T05:01:05.061Z,12.00
2019-05-20T05:03:35.777Z,12.00
2019-05-20T05:06:06.553Z,12.00
2019-05-20T05:08:37.243Z,12.00
2019-05-20T05:11:08.020Z,12.10
2019-05-20T05:13:38.776Z,12.10
2019-05-20T05:16:09.468Z,12.10
2019-05-20T05:18:40.566Z,12.10
2019-05-20T05:21:11.614Z,12.20
2019-05-20T05:23:42.373Z,12.20
2019-05-20T05:26:13.010Z,12.30
2019-05-20T05:28:43.775Z,12.30
2019-05-20T05:31:14.302Z,12.30
2019-05-20T05:33:44.944Z,12.40
2019-05-20T05:36:15.658Z,12.40
2019-05-20T05:38:46.327Z,12.40
2019-05-20T05:41:17.266Z,12.40
2019-05-20T05:43:47.910Z,12.40
2019-05-20T05:46:18.487Z,12.50
2019-05-20T05:48:49.014Z,12.50
2019-05-20T05:51:19.715Z,12.50
2019-05-20T05:53:50.363Z,12.60
2019-05-20T05:56:20.947Z,12.50
2019-05-20T05:58:51.483Z,12.60
2019-05-20T06:01:22.243Z,12.60
2019-05-20T06:03:52.771Z,12.50
2019-05-20T06:06:23.423Z,12.50
2019-05-20T06:08:54.130Z,12.50
2019-05-20T06:11:24.708Z,12.50
2019-05-20T06:13:55.351Z,12.60
2019-05-20T06:16:36.071Z,12.60
2019-05-20T06:18:58.378Z,12.60
2019-05-20T06:22:25.586Z,12.60
2019-05-20T06:24:56.244Z,12.70
2019-05-20T06:27:27.021Z,12.60
2019-05-20T06:29:57.623Z,12.50
2019-05-20T06:32:28.431Z,12.40
2019-05-20T06:34:59.143Z,12.30
2019-05-20T06:37:37.568Z,12.30
2019-05-20T06:40:08.622Z,12.30
2019-05-20T06:42:39.527Z,12.30
2019-05-20T06:45:11.154Z,12.30
2019-05-20T06:47:42.148Z,12.30
2019-05-20T06:50:12.911Z,12.30
2019-05-20T06:52:43.503Z,12.30
2019-05-20T06:55:14.564Z,12.30
2019-05-20T06:57:45.273Z,12.40
2019-05-20T07:00:24.794Z,12.30
2019-05-20T07:02:55.550Z,12.40
2019-05-20T07:05:26.261Z,12.40
2019-05-20T07:07:57.163Z,12.40
2019-05-20T07:10:28.130Z,12.40
2019-05-20T07:12:58.730Z,12.40
2019-05-20T07:15:29.690Z,12.40
2019-05-20T07:18:00.844Z,12.40
2019-05-20T07:20:31.509Z,12.50
2019-05-20T07:23:02.279Z,12.50
2019-05-20T07:25:32.961Z,12.50
2019-05-20T07:28:03.718Z,12.50
2019-05-20T07:30:34.770Z,12.50
2019-05-20T07:33:05.525Z,12.50
2019-05-20T07:35:36.198Z,12.60
2019-05-20T07:38:07.017Z,12.60
2019-05-20T07:40:38.092Z,12.60
2019-05-20T07:43:08.930Z,12.70
2019-05-20T07:45:39.909Z,12.70
2019-05-20T07:48:10.944Z,12.70
2019-05-20T07:50:42.629Z,12.70
2019-05-20T07:53:14.795Z,12.70
2019-05-20T07:56:09.667Z,12.70
2019-05-20T07:58:43.245Z,12.80
2019-05-20T08:01:14.126Z,12.80
2019-05-20T08:03:44.899Z,12.80
2019-05-20T08:06:15.662Z,12.80
2019-05-20T08:08:46.386Z,12.90
2019-05-20T08:11:17.066Z,12.90
2019-05-20T08:13:51.805Z,13.00
2019-05-20T08:16:22.615Z,13.00
2019-05-20T08:18:53.559Z,13.10
2019-05-20T08:21:24.895Z,13.10
2019-05-20T08:23:55.829Z,13.20
2019-05-20T08:26:26.729Z,13.20
2019-05-20T08:28:57.475Z,13.20
2019-05-20T08:31:28.154Z,13.30
2019-05-20T08:33:58.934Z,13.40
2019-05-20T08:36:29.826Z,13.30
2019-05-20T08:39:01.784Z,13.30
2019-05-20T08:41:34.091Z,13.20
2019-05-20T08:44:05.255Z,13.20
2019-05-20T08:46:37.683Z,13.10
2019-05-20T08:49:11.219Z,13.20
2019-05-20T08:51:40.760Z,13.20
2019-05-20T08:54:11.585Z,13.30
2019-05-20T08:56:42.376Z,13.30
2019-05-20T08:59:12.973Z,13.30
2019-05-20T09:01:43.740Z,13.30
2019-05-20T09:04:14.409Z,13.40
2019-05-20T09:06:44.914Z,13.40
2019-05-20T09:09:15.706Z,13.40
2019-05-20T09:11:47.910Z,13.40
2019-05-20T09:14:19.112Z,13.40
2019-05-20T09:16:49.917Z,13.50
2019-05-20T09:19:20.606Z,13.50
2019-05-20T09:21:51.153Z,13.60
2019-05-20T09:24:21.842Z,13.60
2019-05-20T09:26:52.826Z,13.60
2019-05-20T09:29:23.402Z,13.70
2019-05-20T09:31:54.471Z,13.70
2019-05-20T09:34:26.671Z,13.80
2019-05-20T09:36:57.820Z,13.80
2019-05-20T09:39:28.861Z,13.80
2019-05-20T09:41:59.904Z,13.80
2019-05-20T09:44:30.788Z,13.80
2019-05-20T09:47:01.549Z,13.80
2019-05-20T09:49:32.546Z,13.90
2019-05-20T09:52:03.320Z,13.90
2019-05-20T09:54:34.050Z,13.80
2019-05-20T09:57:04.817Z,13.80
2019-05-20T09:59:43.221Z,13.80
2019-05-20T10:02:07.926Z,13.80
2019-05-20T10:04:39.050Z,13.90
2019-05-20T10:07:10.130Z,13.80
2019-05-20T10:09:40.810Z,13.90
2019-05-20T10:12:11.494Z,13.90
2019-05-20T10:14:42.025Z,13.90
2019-05-20T10:17:12.715Z,13.90
2019-05-20T10:19:43.362Z,14.00
2019-05-20T10:22:14.003Z,14.00
2019-05-20T10:24:44.621Z,14.10
2019-05-20T10:27:16.382Z,14.10
2019-05-20T10:29:46.930Z,14.10
2019-05-20T10:32:17.901Z,14.20
2019-05-20T10:34:48.698Z,14.30
2019-05-20T10:37:19.670Z,14.40
2019-05-20T10:39:51.458Z,14.40
2019-05-20T10:42:22.802Z,14.50
2019-05-20T10:44:53.791Z,14.50
2019-05-20T10:47:24.521Z,14.50
2019-05-20T10:49:55.287Z,14.50
2019-05-20T10:52:26.012Z,14.50
2019-05-20T10:54:56.974Z,14.60
2019-05-20T10:57:27.579Z,14.70
2019-05-20T10:59:58.158Z,14.80
2019-05-20T11:02:31.329Z,14.90
2019-05-20T11:05:01.662Z,14.90
2019-05-20T11:07:32.440Z,14.90
2019-05-20T11:10:03.802Z,14.90
2019-05-20T11:12:34.450Z,15.00
2019-05-20T11:15:08.202Z,15.00
2019-05-20T11:17:40.045Z,15.00
2019-05-20T11:20:11.276Z,15.00
2019-05-20T11:22:41.813Z,14.90
2019-05-20T11:25:12.789Z,14.90
2019-05-20T11:27:43.362Z,15.00
2019-05-20T11:30:14.633Z,15.00
2019-05-20T11:32:45.567Z,15.00
2019-05-20T11:35:16.936Z,15.00
2019-05-20T11:37:47.429Z,14.90
2019-05-20T11:40:18.713Z,14.90
2019-05-20T11:42:49.411Z,14.80
2019-05-20T11:45:20.883Z,14.70
2019-05-20T11:47:51.542Z,14.70
2019-05-20T11:50:22.432Z,14.60
2019-05-20T11:52:53.066Z,14.60
2019-05-20T11:55:23.835Z,14.60
2019-05-20T11:57:54.864Z,14.60
2019-05-20T12:00:25.886Z,14.60
2019-05-20T12:02:57.216Z,14.50
2019-05-20T12:05:27.822Z,14.50
2019-05-20T12:07:58.528Z,14.40
2019-05-20T12:10:29.169Z,14.30
2019-05-20T12:12:59.768Z,14.30
2019-05-20T12:15:30.377Z,14.30
2019-05-20T12:18:01.275Z,14.30
2019-05-20T12:20:31.929Z,14.30
2019-05-20T12:23:02.574Z,14.20
2019-05-20T12:25:33.198Z,14.20
2019-05-20T12:28:03.982Z,14.10
2019-05-20T12:30:34.810Z,14.00
2019-05-20T12:33:18.674Z,14.00
2019-05-20T12:35:37.768Z,14.00
2019-05-20T12:38:08.412Z,13.90
2019-05-20T12:40:38.991Z,13.90
2019-05-20T12:43:09.626Z,13.70
2019-05-20T12:45:41.214Z,13.70
2019-05-20T12:48:11.928Z,13.50
2019-05-20T12:50:42.510Z,13.40
2019-05-20T12:53:13.257Z,13.40
2019-05-20T12:55:43.901Z,13.40
2019-05-20T12:58:14.719Z,13.40
2019-05-20T13:00:45.254Z,13.30
2019-05-20T13:03:15.762Z,13.20
2019-05-20T13:05:46.638Z,13.00
2019-05-20T13:08:17.121Z,12.90
2019-05-20T13:10:47.782Z,12.80
2019-05-20T13:13:18.519Z,12.80
2019-05-20T13:15:49.224Z,12.80
2019-05-20T13:18:19.845Z,12.80
2019-05-20T13:20:50.730Z,12.80
2019-05-20T13:23:21.306Z,12.70
2019-05-20T13:25:52.019Z,12.70
2019-05-20T13:28:22.714Z,12.60
2019-05-20T13:30:53.422Z,12.60
2019-05-20T13:33:23.991Z,12.60
2019-05-20T13:35:54.706Z,12.70
2019-05-20T13:38:25.201Z,12.60
2019-05-20T13:40:55.739Z,12.60
2019-05-20T13:43:26.787Z,12.70
2019-05-20T13:45:57.502Z,12.80
2019-05-20T13:48:28.157Z,12.80
2019-05-20T13:50:58.886Z,12.90
2019-05-20T13:53:29.496Z,12.90
2019-05-20T13:56:00.138Z,13.00
2019-05-20T13:58:30.778Z,13.00
2019-05-20T14:01:01.358Z,12.90
2019-05-20T14:03:32.342Z,13.00
2019-05-20T14:06:02.966Z,13.00
2019-05-20T14:08:34.441Z,13.10
2019-05-20T14:11:05.311Z,13.10
2019-05-20T14:13:36.150Z,13.10
2019-05-20T14:16:06.984Z,13.20
2019-05-20T14:18:37.791Z,13.20
2019-05-20T14:21:08.666Z,13.20
2019-05-20T14:23:39.452Z,13.20
2019-05-20T14:26:10.218Z,13.20
2019-05-20T14:28:41.104Z,13.20
2019-05-20T14:31:11.823Z,13.20
2019-05-20T14:33:42.511Z,13.20
2019-05-20T14:36:13.235Z,13.10
2019-05-20T14:38:43.807Z,13.10
2019-05-20T14:41:21.655Z,13.20
2019-05-20T14:43:46.942Z,13.20
2019-05-20T14:46:17.902Z,13.10
2019-05-20T14:48:48.550Z,13.20
2019-05-20T14:51:19.271Z,13.20
2019-05-20T14:53:50.030Z,13.20
2019-05-20T14:56:20.739Z,13.10
2019-05-20T14:58:51.519Z,13.10
2019-05-20T15:01:22.418Z,13.00
2019-05-20T15:03:53.490Z,12.90
2019-05-20T15:06:24.019Z,12.90
2019-05-20T15:08:55.800Z,12.90
2019-05-20T15:11:37.699Z,13.00
2019-05-20T15:14:00.328Z,13.00
2019-05-20T15:16:31.777Z,13.00
2019-05-20T15:19:02.418Z,13.00
2019-05-20T15:21:33.323Z,12.90
2019-05-20T15:24:04.471Z,12.90
2019-05-20T15:26:35.163Z,12.90
2019-05-20T15:29:06.308Z,12.80
2019-05-20T15:31:37.106Z,12.80
2019-05-20T15:34:07.710Z,12.70
2019-05-20T15:36:38.357Z,12.70
2019-05-20T15:39:09.063Z,12.60
2019-05-20T15:41:39.970Z,12.60
2019-05-20T15:44:10.553Z,12.60
2019-05-20T15:46:41.299Z,12.60
2019-05-20T15:49:11.905Z,12.60
2019-05-20T15:51:42.513Z,12.50
2019-05-20T15:54:13.022Z,12.40
2019-05-20T15:56:43.950Z,12.40
2019-05-20T15:59:14.883Z,12.50
2019-05-20T16:01:45.442Z,12.50
2019-05-20T16:04:16.178Z,12.50
2019-05-20T16:06:46.714Z,12.60
2019-05-20T16:09:17.660Z,12.60
2019-05-20T16:11:48.594Z,12.60
2019-05-20T16:14:19.270Z,12.60
2019-05-20T16:16:50.128Z,12.50
2019-05-20T16:19:20.780Z,12.50
2019-05-20T16:21:51.914Z,12.50
2019-05-20T16:24:22.602Z,12.50
2019-05-20T16:26:53.384Z,12.50
2019-05-20T16:29:24.531Z,12.40
2019-05-20T16:31:55.106Z,12.40
2019-05-20T16:34:48.949Z,12.40
2019-05-20T16:37:20.877Z,12.40
2019-05-20T16:39:54.679Z,12.50
2019-05-20T16:42:27.098Z,12.40
2019-05-20T16:44:57.981Z,12.50
2019-05-20T16:47:28.771Z,12.50
2019-05-20T16:49:59.812Z,12.50
2019-05-20T16:52:32.215Z,12.50
2019-05-20T16:55:03.270Z,12.50
2019-05-20T16:57:35.290Z,12.50
2019-05-20T17:00:20.971Z,12.50
2019-05-20T17:02:41.194Z,12.60
2019-05-20T17:05:11.856Z,12.60
2019-05-20T17:07:43.860Z,12.60
2019-05-20T17:10:14.990Z,12.60
2019-05-20T17:12:45.774Z,12.70
2019-05-20T17:15:16.716Z,12.60
2019-05-20T17:17:47.383Z,12.60
2019-05-20T17:20:18.215Z,12.60
2019-05-20T17:22:50.105Z,12.60
2019-05-20T17:25:21.083Z,12.60
2019-05-20T17:27:51.971Z,12.60
2019-05-20T17:30:23.898Z,12.60
2019-05-20T17:32:55.598Z,12.60
2019-05-20T17:35:26.250Z,12.60
2019-05-20T17:37:57.052Z,12.60
2019-05-20T17:40:28.187Z,12.50
2019-05-20T17:42:59.094Z,12.60
2019-05-20T17:45:29.810Z,12.60
2019-05-20T17:48:00.593Z,12.60
2019-05-20T17:50:31.473Z,12.60
2019-05-20T17:53:02.899Z,12.60
2019-05-20T17:55:33.597Z,12.50
2019-05-20T17:58:04.345Z,12.50
2019-05-20T18:00:35.479Z,12.50
2019-05-20T18:03:06.535Z,12.50
2019-05-20T18:05:37.250Z,12.50
2019-05-20T18:08:08.115Z,12.40
2019-05-20T18:10:38.654Z,12.40
2019-05-20T18:13:24.745Z,12.40
2019-05-20T18:15:55.410Z,12.40
2019-05-20T18:18:26.031Z,12.40
2019-05-20T18:20:56.742Z,12.40
2019-05-20T18:23:27.327Z,12.30
2019-05-20T18:25:58.273Z,12.30
2019-05-20T18:28:29.240Z,12.30
2019-05-20T18:30:59.845Z,12.30
2019-05-20T18:33:30.647Z,12.30
2019-05-20T18:36:01.145Z,12.30
2019-05-20T18:38:31.855Z,12.30
2019-05-20T18:41:02.697Z,12.30
2019-05-20T18:43:33.308Z,12.30
2019-05-20T18:46:04.067Z,12.30
2019-05-20T18:48:34.912Z,12.30
2019-05-20T18:51:05.500Z,12.30
2019-05-20T18:53:36.504Z,12.40
2019-05-20T18:56:07.082Z,12.40
2019-05-20T18:58:37.751Z,12.40
2019-05-20T19:01:08.481Z,12.50
2019-05-20T19:03:39.511Z,12.50
2019-05-20T19:06:10.321Z,12.60
2019-05-20T19:08:40.995Z,12.60
2019-05-20T19:11:11.671Z,12.60
2019-05-20T19:13:42.690Z,12.60
2019-05-20T19:16:13.474Z,12.60
2019-05-20T19:18:44.155Z,12.70
2019-05-20T19:21:14.857Z,12.60
2019-05-20T19:23:45.503Z,12.60
2019-05-20T19:26:24.585Z,12.60
2019-05-20T19:28:48.417Z,12.60
2019-05-20T19:31:19.198Z,12.70
2019-05-20T19:33:49.854Z,12.70
2019-05-20T19:36:21.052Z,12.70
2019-05-20T19:38:52.103Z,12.60
2019-05-20T19:41:22.706Z,12.50
2019-05-20T19:43:53.607Z,12.50
2019-05-20T19:46:24.323Z,12.50
2019-05-20T19:48:54.916Z,12.40
2019-05-20T19:51:25.755Z,12.40
2019-05-20T19:53:57.614Z,12.40
2019-05-20T19:56:28.331Z,12.40
2019-05-20T19:58:59.166Z,12.30
2019-05-20T20:01:29.933Z,12.30
2019-05-20T20:04:00.717Z,12.30
2019-05-20T20:06:31.733Z,12.30
2019-05-20T20:09:02.384Z,12.30
2019-05-20T20:11:34.589Z,12.20
2019-05-20T20:14:05.338Z,12.20
2019-05-20T20:16:36.108Z,12.20
2019-05-20T20:19:06.895Z,12.20
2019-05-20T20:21:37.599Z,12.20
2019-05-20T20:24:09.524Z,12.20
2019-05-20T20:26:40.426Z,12.20
2019-05-20T20:29:11.430Z,12.20
2019-05-20T20:31:41.938Z,12.20
2019-05-20T20:34:12.880Z,12.20
2019-05-20T20:36:43.710Z,12.20
2019-05-20T20:39:14.491Z,12.20
2019-05-20T20:41:45.222Z,12.20
2019-05-20T20:44:15.819Z,12.20
2019-05-20T20:46:46.630Z,12.20
2019-05-20T20:49:17.345Z,12.20
2019-05-20T20:51:47.956Z,12.20
2019-05-20T20:54:18.848Z,12.20
2019-05-20T20:56:49.567Z,12.10
2019-05-20T20:59:20.347Z,12.00
2019-05-20T21:01:54.229Z,12.10
2019-05-20T21:04:23.571Z,12.00
2019-05-20T21:06:54.354Z,12.00
2019-05-20T21:09:25.165Z,12.00
2019-05-20T21:11:56.008Z,12.00
2019-05-20T21:14:26.935Z,11.90
2019-05-20T21:17:00.611Z,12.00
2019-05-20T21:19:31.160Z,12.00
2019-05-20T21:22:01.790Z,12.00
2019-05-20T21:24:32.535Z,12.10
2019-05-20T21:27:03.154Z,12.10
2019-05-20T21:29:33.841Z,12.10
2019-05-20T21:32:04.748Z,12.10
2019-05-20T21:34:35.575Z,12.10
2019-05-20T21:37:06.219Z,12.00
2019-05-20T21:39:36.813Z,12.10
2019-05-20T21:42:07.443Z,12.10
2019-05-20T21:44:38.134Z,12.10
2019-05-20T21:47:10.008Z,12.00
2019-05-20T21:49:41.674Z,12.00
2019-05-20T21:52:12.342Z,12.00
2019-05-20T21:54:42.935Z,12.00
2019-05-20T21:57:13.516Z,12.10
2019-05-20T21:59:44.600Z,12.10
2019-05-20T22:02:15.173Z,12.00
2019-05-20T22:04:45.842Z,12.00
2019-05-20T22:07:17.643Z,11.90
2019-05-20T22:09:48.286Z,11.90
2019-05-20T22:12:19.290Z,11.80
2019-05-20T22:14:49.943Z,11.80
2019-05-20T22:17:20.976Z,11.70
2019-05-20T22:19:51.904Z,11.70
2019-05-20T22:22:33.166Z,11.60
2019-05-20T22:25:03.962Z,11.60
2019-05-20T22:27:34.681Z,11.60
2019-05-20T22:30:07.650Z,11.70
2019-05-20T22:32:39.374Z,11.80
2019-05-20T22:35:10.242Z,11.90
2019-05-20T22:37:41.059Z,11.80
2019-05-20T22:40:11.998Z,11.60
2019-05-20T22:42:42.676Z,11.60
2019-05-20T22:45:13.438Z,11.60
2019-05-20T22:47:44.259Z,11.70
2019-05-20T22:50:14.910Z,11.70
2019-05-20T22:52:45.442Z,11.70
2019-05-20T22:55:16.102Z,11.70
2019-05-20T22:57:46.641Z,11.70
2019-05-20T23:00:17.998Z,11.70
2019-05-20T23:02:48.733Z,11.70
2019-05-20T23:05:19.587Z,11.60
2019-05-20T23:07:50.114Z,11.60
2019-05-20T23:10:20.870Z,11.60
2019-05-20T23:12:51.536Z,11.60
2019-05-20T23:15:22.532Z,11.60
2019-05-20T23:17:53.376Z,11.60
2019-05-20T23:20:23.991Z,11.60
2019-05-20T23:22:54.635Z,11.70
2019-05-20T23:25:25.342Z,11.70
2019-05-20T23:27:55.992Z,11.80
2019-05-20T23:30:26.586Z,11.70
2019-05-20T23:32:57.190Z,11.80
2019-05-20T23:35:27.753Z,11.80
2019-05-20T23:37:58.266Z,11.80
2019-05-20T23:40:29.339Z,11.80
2019-05-20T23:42:59.992Z,11.80
2019-05-20T23:45:30.650Z,11.90
2019-05-20T23:48:01.321Z,11.80
2019-05-20T23:50:31.928Z,11.80
2019-05-20T23:53:02.849Z,11.80
2019-05-20T23:55:33.698Z,11.90
2019-05-20T23:58:04.346Z,11.90
